Jules — FAB9197 — position and weather

sailwx.info

Track history (hours):
 
Tides and Currents Weather Stations Pressure Air Temp Water Temp Dewpoint Dewpoint Depression Visibility Wind Speed Wind Dir Waves Ship Positions

Jules

Last reported at 2017-Nov-26 14:44 UTC. Time now 2018-Jan-19 03:10 UTC.
Position N 47°43' W 003°21'.
Warning: this ship's position is 53 days out of date.

Length 12 m.

Type: Sailing vessel. MMSI: 227252370.

Date/timePositionNaut miles runAvg speedWind from/ knotsBaromVisibWave heightAir tempDewpointWater temp
2017-Nov-26 14:44N 47°43' W 003°21'0 0.0
2017-Nov-26 14:29N 47°43' W 003°21'0 0.0
2017-Nov-26 13:59N 47°43' W 003°21'0 0.0
2017-Nov-26 13:29N 47°43' W 003°21'0 0.0
2017-Nov-26 12:59N 47°43' W 003°21'0 0.0
2017-Nov-26 12:29N 47°43' W 003°21'0 0.3
2017-Nov-26 12:00N 47°43' W 003°21'2 4.2
2017-Nov-26 11:30N 47°42' W 003°23'3 6.4
2017-Nov-26 11:00N 47°39' W 003°26'1 1.5
2017-Nov-26 10:29N 47°39' W 003°27'0 0.0
2017-Nov-26 09:59N 47°39' W 003°27'0 0.0
2017-Nov-26 09:29N 47°39' W 003°27'0 0.0
2017-Nov-26 08:59N 47°39' W 003°27'0 0.0
2017-Nov-26 08:29N 47°39' W 003°27'0 0.0
2017-Nov-26 07:59N 47°39' W 003°27'0 0.0
2017-Nov-26 07:29N 47°39' W 003°27'0 0.0
2017-Nov-26 06:59N 47°39' W 003°27'0 0.0
2017-Nov-26 06:29N 47°39' W 003°27'0 0.0
2017-Nov-26 05:59N 47°39' W 003°27'0 0.0
2017-Nov-26 05:29N 47°39' W 003°27'0 0.0
2017-Nov-26 04:59N 47°39' W 003°27'0 0.0
2017-Nov-26 04:29N 47°39' W 003°27'0 0.0
2017-Nov-26 03:59N 47°39' W 003°27'0 0.0
2017-Nov-26 03:29N 47°39' W 003°27'0 0.0
2017-Nov-26 02:59N 47°39' W 003°27'0 0.0
2017-Nov-26 02:29N 47°39' W 003°27'0 0.0
2017-Nov-26 01:59N 47°39' W 003°27'0 0.0
2017-Nov-26 01:29N 47°39' W 003°27'0 0.0
2017-Nov-26 00:59N 47°39' W 003°27'0 0.0
2017-Nov-26 00:29N 47°39' W 003°27'0 0.0
2017-Nov-25 23:59N 47°39' W 003°27'0 0.0
2017-Nov-25 23:29N 47°39' W 003°27'0 0.0
2017-Nov-25 22:59N 47°39' W 003°27'0 0.0
2017-Nov-25 22:29N 47°39' W 003°27'0 0.0
2017-Nov-25 21:59N 47°39' W 003°27'0 0.0
2017-Nov-25 21:29N 47°39' W 003°27'0 0.0
2017-Nov-25 20:59N 47°39' W 003°27'0 0.0
2017-Nov-25 20:29N 47°39' W 003°27'0 0.0
2017-Nov-25 19:59N 47°39' W 003°27'0 0.0
2017-Nov-25 19:29N 47°39' W 003°27'0 0.0
2017-Nov-25 18:59N 47°39' W 003°27'0 0.0
2017-Nov-25 18:29N 47°39' W 003°27'0 0.0
2017-Nov-25 17:59N 47°39' W 003°27'0 0.0
2017-Nov-25 17:29N 47°39' W 003°27'0 0.0
2017-Nov-25 16:59N 47°39' W 003°27'0 0.0
2017-Nov-25 16:29N 47°39' W 003°27'0 0.0
2017-Nov-25 15:59N 47°39' W 003°27'0 0.0
2017-Nov-25 15:29N 47°39' W 003°27'0 0.0
2017-Nov-25 14:59N 47°39' W 003°27'0 0.0
2017-Nov-25 14:29N 47°39' W 003°27'0 0.0
2017-Nov-25 13:59N 47°39' W 003°27'0 0.0
2017-Nov-25 13:29N 47°39' W 003°27'0 0.0
2017-Nov-25 12:59N 47°39' W 003°27'1 2.9
2017-Nov-25 12:30N 47°40' W 003°26'4 7.7
2017-Nov-25 12:00N 47°43' W 003°22'1 2.0
2017-Nov-25 11:29N 47°43' W 003°21'  
Track history (hours):
 
Tides and Currents Weather Stations Pressure Air Temp Water Temp Dewpoint Dewpoint Depression Visibility Wind Speed Wind Dir Waves Ship Positions

Jules

Last reported at 2017-Nov-26 14:44 UTC. Time now 2018-Jan-19 03:10 UTC.
Position N 47°43' W 003°21'.
Warning: this ship's position is 53 days out of date.

Length 12 m.

Type: Sailing vessel. MMSI: 227252370.

Date/timePositionNaut miles runAvg speedWind from/ knotsBaromVisibWave heightAir tempDewpointWater temp
2017-Nov-26 14:44N 47°43' W 003°21'0 0.0
2017-Nov-26 14:29N 47°43' W 003°21'0 0.0
2017-Nov-26 13:59N 47°43' W 003°21'0 0.0
2017-Nov-26 13:29N 47°43' W 003°21'0 0.0
2017-Nov-26 12:59N 47°43' W 003°21'0 0.0
2017-Nov-26 12:29N 47°43' W 003°21'0 0.3
2017-Nov-26 12:00N 47°43' W 003°21'2 4.2
2017-Nov-26 11:30N 47°42' W 003°23'3 6.4
2017-Nov-26 11:00N 47°39' W 003°26'1 1.5
2017-Nov-26 10:29N 47°39' W 003°27'0 0.0
2017-Nov-26 09:59N 47°39' W 003°27'0 0.0
2017-Nov-26 09:29N 47°39' W 003°27'0 0.0
2017-Nov-26 08:59N 47°39' W 003°27'0 0.0
2017-Nov-26 08:29N 47°39' W 003°27'0 0.0
2017-Nov-26 07:59N 47°39' W 003°27'0 0.0
2017-Nov-26 07:29N 47°39' W 003°27'0 0.0
2017-Nov-26 06:59N 47°39' W 003°27'0 0.0
2017-Nov-26 06:29N 47°39' W 003°27'0 0.0
2017-Nov-26 05:59N 47°39' W 003°27'0 0.0
2017-Nov-26 05:29N 47°39' W 003°27'0 0.0
2017-Nov-26 04:59N 47°39' W 003°27'0 0.0
2017-Nov-26 04:29N 47°39' W 003°27'0 0.0
2017-Nov-26 03:59N 47°39' W 003°27'0 0.0
2017-Nov-26 03:29N 47°39' W 003°27'0 0.0
2017-Nov-26 02:59N 47°39' W 003°27'0 0.0
2017-Nov-26 02:29N 47°39' W 003°27'0 0.0
2017-Nov-26 01:59N 47°39' W 003°27'0 0.0
2017-Nov-26 01:29N 47°39' W 003°27'0 0.0
2017-Nov-26 00:59N 47°39' W 003°27'0 0.0
2017-Nov-26 00:29N 47°39' W 003°27'0 0.0
2017-Nov-25 23:59N 47°39' W 003°27'0 0.0
2017-Nov-25 23:29N 47°39' W 003°27'0 0.0
2017-Nov-25 22:59N 47°39' W 003°27'0 0.0
2017-Nov-25 22:29N 47°39' W 003°27'0 0.0
2017-Nov-25 21:59N 47°39' W 003°27'0 0.0
2017-Nov-25 21:29N 47°39' W 003°27'0 0.0
2017-Nov-25 20:59N 47°39' W 003°27'0 0.0
2017-Nov-25 20:29N 47°39' W 003°27'0 0.0
2017-Nov-25 19:59N 47°39' W 003°27'0 0.0
2017-Nov-25 19:29N 47°39' W 003°27'0 0.0
2017-Nov-25 18:59N 47°39' W 003°27'0 0.0
2017-Nov-25 18:29N 47°39' W 003°27'0 0.0
2017-Nov-25 17:59N 47°39' W 003°27'0 0.0
2017-Nov-25 17:29N 47°39' W 003°27'0 0.0
2017-Nov-25 16:59N 47°39' W 003°27'0 0.0
2017-Nov-25 16:29N 47°39' W 003°27'0 0.0
2017-Nov-25 15:59N 47°39' W 003°27'0 0.0
2017-Nov-25 15:29N 47°39' W 003°27'0 0.0
2017-Nov-25 14:59N 47°39' W 003°27'0 0.0
2017-Nov-25 14:29N 47°39' W 003°27'0 0.0
2017-Nov-25 13:59N 47°39' W 003°27'0 0.0
2017-Nov-25 13:29N 47°39' W 003°27'0 0.0
2017-Nov-25 12:59N 47°39' W 003°27'1 2.9
2017-Nov-25 12:30N 47°40' W 003°26'4 7.7
2017-Nov-25 12:00N 47°43' W 003°22'1 2.0
2017-Nov-25 11:29N 47°43' W 003°21'  

Dump ship's entire track history